Yvonne K. — PBLX — position and weather

sailwx.info

Track history (hours):
 
Tides and Currents Weather Stations Pressure Air Temp Water Temp Dewpoint Dewpoint Depression Visibility Wind Speed Wind Dir Waves Ship Positions

Yvonne K.

Last reported at 2017-Nov-09 00:31 UTC. Time now 2017-Nov-23 09:38 UTC.
Position N 37°38' W 000°27'.
Warning: this ship's position is 14 days out of date.

Length 90 m; draft 5.6 m.

Type: Cargo ship. MMSI: 244948000.

Date/timePositionNaut miles runAvg speedWind from/ knotsBaromVisibWave heightAir tempDewpointWater temp
2017-Nov-09 00:31N 37°38' W 000°27'0 9.3
2017-Nov-09 00:28N 37°37' W 000°28'4 9.3
2017-Nov-09 00:00N 37°34' W 000°31'13 9.1
2017-Nov-08 22:36N 37°25' W 000°43'1 9.0
2017-Nov-08 22:30N 37°24' W 000°43'9 9.1
2017-Nov-08 21:33N 37°19' W 000°52'0 9.2
2017-Nov-08 21:30N 37°18' W 000°52'264 9.5
2017-Nov-07 17:31N 35°54' W 006°04'010.7
2017-Nov-07 17:30N 35°54' W 006°04'510.4
2017-Nov-07 17:00N 35°54' W 006°11'5 9.9
2017-Nov-07 16:30N 35°55' W 006°17'12 9.4
2017-Nov-07 15:16N 35°58' W 006°31'  
2017-Nov-03 06:31N 48°47' W 005°51'410.1
2017-Nov-03 06:10N 48°50' W 005°49'27 8.2
2017-Nov-03 02:50N 49°05' W 005°14'3 7.7
2017-Nov-03 02:29N 49°07' W 005°10'4 7.8
2017-Nov-03 01:55N 49°09' W 005°05'3 8.0
2017-Nov-03 01:30N 49°11' W 005°00'4 8.2
2017-Nov-03 00:59N 49°13' W 004°55'10 9.0
2017-Nov-02 23:51N 49°18' W 004°41'8 9.9
2017-Nov-02 23:03N 49°22' W 004°31'68 9.3
2017-Nov-02 15:45N 49°56' W 002°60'2 8.4
2017-Nov-02 15:30N 49°57' W 002°57'5 8.7
2017-Nov-02 14:58N 49°58' W 002°50'7 9.5
2017-Nov-02 14:16N 50°00' W 002°40'610.6
2017-Nov-02 13:39N 50°02' W 002°31'711.6
2017-Nov-02 13:01N 50°04' W 002°20'0 9.1
2017-Nov-02 13:00N 50°04' W 002°20'712.3
2017-Nov-02 12:25N 50°07' W 002°09'712.6
2017-Nov-02 11:53N 50°09' W 001°59'69 8.7
2017-Nov-02 03:58N 50°29' W 000°16'4 9.4
2017-Nov-02 03:30N 50°30' W 000°09'5 9.9
2017-Nov-02 03:00N 50°32' W 000°02'510.2
2017-Nov-02 02:30N 50°33' E 000°06'510.3
2017-Nov-02 02:00N 50°35' E 000°14'510.4
2017-Nov-02 01:30N 50°37' E 000°21'510.3
2017-Nov-02 01:00N 50°38' E 000°29'5 9.7
2017-Nov-02 00:30N 50°40' E 000°36'5 9.5
2017-Nov-02 00:00N 50°43' E 000°42'5 9.0
2017-Nov-01 23:30N 50°45' E 000°48'4 8.5
2017-Nov-01 23:00N 50°48' E 000°54'4 8.0
2017-Nov-01 22:29N 50°50' E 000°59'10 7.3
2017-Nov-01 21:05N 50°56' E 001°12'1 7.2
2017-Nov-01 20:56N 50°57' E 001°13'8 7.4
2017-Nov-01 19:49N 51°02' E 001°23'3 8.7
2017-Nov-01 19:30N 51°04' E 001°27'5 9.9
2017-Nov-01 19:00N 51°07' E 001°33'510.8
2017-Nov-01 18:30N 51°11' E 001°39'78 4.8
2017-Nov-01 02:00N 51°05' E 003°44'0 0.0
2017-Nov-01 01:30N 51°05' E 003°44'0 0.0
2017-Nov-01 01:00N 51°05' E 003°44'0 0.0
2017-Nov-01 00:30N 51°05' E 003°44'0 0.0
2017-Nov-01 00:00N 51°05' E 003°44'0 0.0
2017-Oct-31 23:30N 51°05' E 003°44'0 0.0
2017-Oct-31 23:00N 51°05' E 003°44'0 0.0
2017-Oct-31 22:30N 51°05' E 003°44'0 0.0
2017-Oct-31 22:00N 51°05' E 003°44'0 0.0
2017-Oct-31 21:30N 51°05' E 003°44'0 0.0
2017-Oct-31 21:00N 51°05' E 003°44'0 0.0
2017-Oct-31 20:30N 51°05' E 003°44'0 0.0
2017-Oct-31 20:00N 51°05' E 003°44'0 0.0
2017-Oct-31 19:30N 51°05' E 003°44'0 0.0
2017-Oct-31 19:00N 51°05' E 003°44'0 0.0
2017-Oct-31 18:30N 51°05' E 003°44'0 0.0
2017-Oct-31 18:00N 51°05' E 003°44'0 0.0
2017-Oct-31 17:30N 51°05' E 003°44'0 0.0
2017-Oct-31 17:00N 51°05' E 003°44'0 0.0
2017-Oct-31 16:30N 51°05' E 003°44'0 0.0
2017-Oct-31 16:00N 51°05' E 003°44'0 0.0
2017-Oct-31 15:30N 51°05' E 003°44'0 0.0
2017-Oct-31 15:00N 51°05' E 003°44'0 0.0
2017-Oct-31 14:31N 51°05' E 003°44'0 0.0
2017-Oct-31 14:00N 51°05' E 003°44'0 0.0
2017-Oct-31 13:30N 51°05' E 003°44'0 0.0
2017-Oct-31 13:00N 51°05' E 003°44'0 0.0
2017-Oct-31 12:30N 51°05' E 003°44'0 0.0
2017-Oct-31 12:00N 51°05' E 003°44'0 0.0
2017-Oct-31 11:30N 51°05' E 003°44'0 0.0
2017-Oct-31 11:01N 51°05' E 003°44'0 0.0
2017-Oct-31 10:30N 51°05' E 003°44'0 0.0
2017-Oct-31 10:00N 51°05' E 003°44'0 0.0
2017-Oct-31 09:30N 51°05' E 003°44'0 0.0
2017-Oct-31 09:00N 51°05' E 003°44'0 0.0
2017-Oct-31 08:30N 51°05' E 003°44'0 0.0
2017-Oct-31 08:00N 51°05' E 003°44'0 0.0
2017-Oct-31 07:31N 51°05' E 003°44'0 0.0
2017-Oct-31 07:00N 51°05' E 003°44'0 0.0
2017-Oct-31 06:30N 51°05' E 003°44'0 0.0
2017-Oct-31 06:00N 51°05' E 003°44'0 0.0
2017-Oct-31 05:30N 51°05' E 003°44'0 0.0
2017-Oct-31 05:00N 51°05' E 003°44'0 0.0
2017-Oct-31 04:31N 51°05' E 003°44'0 0.0
2017-Oct-31 04:00N 51°05' E 003°44'0 0.0
2017-Oct-31 03:31N 51°05' E 003°44'0 0.0
2017-Oct-31 03:00N 51°05' E 003°44'0 0.0
2017-Oct-31 02:30N 51°05' E 003°44'0 0.0
2017-Oct-31 02:00N 51°05' E 003°44'0 0.0
2017-Oct-31 01:30N 51°05' E 003°44'0 0.0
2017-Oct-31 01:01N 51°05' E 003°44'0 0.0
2017-Oct-31 00:30N 51°05' E 003°44'0 0.0
2017-Oct-31 00:00N 51°05' E 003°44'0 0.0
2017-Oct-30 23:30N 51°05' E 003°44'0 0.0
2017-Oct-30 23:00N 51°05' E 003°44'0 0.0
2017-Oct-30 22:30N 51°05' E 003°44'0 0.0
2017-Oct-30 22:00N 51°05' E 003°44'0 0.0
2017-Oct-30 21:31N 51°05' E 003°44'2 4.5
2017-Oct-30 21:00N 51°07' E 003°45'4 8.8
2017-Oct-30 20:30N 51°11' E 003°48'3 6.8
2017-Oct-30 20:00N 51°15' E 003°49'4 7.6
2017-Oct-30 19:30N 51°18' E 003°50'2 3.1
2017-Oct-30 19:00N 51°20' E 003°49'0 0.8
2017-Oct-30 18:30N 51°20' E 003°49'0 0.2
2017-Oct-30 18:00N 51°20' E 003°49'2 3.5
2017-Oct-30 17:31N 51°21' E 003°47'5 9.0
2017-Oct-30 17:00N 51°24' E 003°41'5 9.8
2017-Oct-30 16:30N 51°25' E 003°33'3 5.5
2017-Oct-30 16:00N 51°25' E 003°29'3 6.0
2017-Oct-30 15:31N 51°24' E 003°24'3 6.6
2017-Oct-30 15:00N 51°24' E 003°19'5 9.3
2017-Oct-30 14:30N 51°23' E 003°12'10 9.6
2017-Oct-30 13:30N 51°22' E 002°57'510.0
2017-Oct-30 13:00N 51°21' E 002°48'610.2
2017-Oct-30 12:26N 51°21' E 002°39'4 9.7
2017-Oct-30 11:59N 51°20' E 002°33'1 1.0
2017-Oct-30 11:29N 51°19' E 002°32'0 0.0
2017-Oct-30 10:59N 51°19' E 002°32'0 0.0
2017-Oct-30 10:29N 51°19' E 002°32'0 0.0
2017-Oct-30 09:59N 51°19' E 002°32'0 0.0
2017-Oct-30 09:29N 51°19' E 002°32'0 0.0
2017-Oct-30 08:59N 51°19' E 002°32'0 0.0
2017-Oct-30 08:26N 51°19' E 002°32'0 0.0
2017-Oct-30 07:53N 51°19' E 002°32'0 0.0
2017-Oct-30 07:29N 51°19' E 002°32'0 0.1
2017-Oct-30 06:59N 51°19' E 002°32'0 0.0
2017-Oct-30 06:29N 51°19' E 002°32'0 0.0
2017-Oct-30 05:56N 51°19' E 002°32'0 0.1
2017-Oct-30 05:29N 51°19' E 002°32'0 0.0
2017-Oct-30 04:59N 51°19' E 002°32'0 0.0
2017-Oct-30 04:11N 51°19' E 002°32'0 0.0
2017-Oct-30 03:53N 51°19' E 002°32'0 0.0
2017-Oct-30 03:08N 51°19' E 002°32'0 0.0
2017-Oct-30 02:53N 51°19' E 002°32'0 0.0
2017-Oct-30 02:23N 51°19' E 002°32'0 0.0
2017-Oct-30 01:59N 51°19' E 002°32'0 0.0
2017-Oct-30 01:23N 51°19' E 002°32'0 0.0
2017-Oct-30 00:59N 51°19' E 002°32'  
Track history (hours):
 
Tides and Currents Weather Stations Pressure Air Temp Water Temp Dewpoint Dewpoint Depression Visibility Wind Speed Wind Dir Waves Ship Positions

Yvonne K.

Last reported at 2017-Nov-09 00:31 UTC. Time now 2017-Nov-23 09:38 UTC.
Position N 37°38' W 000°27'.
Warning: this ship's position is 14 days out of date.

Length 90 m; draft 5.6 m.

Type: Cargo ship. MMSI: 244948000.

Date/timePositionNaut miles runAvg speedWind from/ knotsBaromVisibWave heightAir tempDewpointWater temp
2017-Nov-09 00:31N 37°38' W 000°27'0 9.3
2017-Nov-09 00:28N 37°37' W 000°28'4 9.3
2017-Nov-09 00:00N 37°34' W 000°31'13 9.1
2017-Nov-08 22:36N 37°25' W 000°43'1 9.0
2017-Nov-08 22:30N 37°24' W 000°43'9 9.1
2017-Nov-08 21:33N 37°19' W 000°52'0 9.2
2017-Nov-08 21:30N 37°18' W 000°52'264 9.5
2017-Nov-07 17:31N 35°54' W 006°04'010.7
2017-Nov-07 17:30N 35°54' W 006°04'510.4
2017-Nov-07 17:00N 35°54' W 006°11'5 9.9
2017-Nov-07 16:30N 35°55' W 006°17'12 9.4
2017-Nov-07 15:16N 35°58' W 006°31'  
2017-Nov-03 06:31N 48°47' W 005°51'410.1
2017-Nov-03 06:10N 48°50' W 005°49'27 8.2
2017-Nov-03 02:50N 49°05' W 005°14'3 7.7
2017-Nov-03 02:29N 49°07' W 005°10'4 7.8
2017-Nov-03 01:55N 49°09' W 005°05'3 8.0
2017-Nov-03 01:30N 49°11' W 005°00'4 8.2
2017-Nov-03 00:59N 49°13' W 004°55'10 9.0
2017-Nov-02 23:51N 49°18' W 004°41'8 9.9
2017-Nov-02 23:03N 49°22' W 004°31'68 9.3
2017-Nov-02 15:45N 49°56' W 002°60'2 8.4
2017-Nov-02 15:30N 49°57' W 002°57'5 8.7
2017-Nov-02 14:58N 49°58' W 002°50'7 9.5
2017-Nov-02 14:16N 50°00' W 002°40'610.6
2017-Nov-02 13:39N 50°02' W 002°31'711.6
2017-Nov-02 13:01N 50°04' W 002°20'0 9.1
2017-Nov-02 13:00N 50°04' W 002°20'712.3
2017-Nov-02 12:25N 50°07' W 002°09'712.6
2017-Nov-02 11:53N 50°09' W 001°59'69 8.7
2017-Nov-02 03:58N 50°29' W 000°16'4 9.4
2017-Nov-02 03:30N 50°30' W 000°09'5 9.9
2017-Nov-02 03:00N 50°32' W 000°02'510.2
2017-Nov-02 02:30N 50°33' E 000°06'510.3
2017-Nov-02 02:00N 50°35' E 000°14'510.4
2017-Nov-02 01:30N 50°37' E 000°21'510.3
2017-Nov-02 01:00N 50°38' E 000°29'5 9.7
2017-Nov-02 00:30N 50°40' E 000°36'5 9.5
2017-Nov-02 00:00N 50°43' E 000°42'5 9.0
2017-Nov-01 23:30N 50°45' E 000°48'4 8.5
2017-Nov-01 23:00N 50°48' E 000°54'4 8.0
2017-Nov-01 22:29N 50°50' E 000°59'10 7.3
2017-Nov-01 21:05N 50°56' E 001°12'1 7.2
2017-Nov-01 20:56N 50°57' E 001°13'8 7.4
2017-Nov-01 19:49N 51°02' E 001°23'3 8.7
2017-Nov-01 19:30N 51°04' E 001°27'5 9.9
2017-Nov-01 19:00N 51°07' E 001°33'510.8
2017-Nov-01 18:30N 51°11' E 001°39'78 4.8
2017-Nov-01 02:00N 51°05' E 003°44'0 0.0
2017-Nov-01 01:30N 51°05' E 003°44'0 0.0
2017-Nov-01 01:00N 51°05' E 003°44'0 0.0
2017-Nov-01 00:30N 51°05' E 003°44'0 0.0
2017-Nov-01 00:00N 51°05' E 003°44'0 0.0
2017-Oct-31 23:30N 51°05' E 003°44'0 0.0
2017-Oct-31 23:00N 51°05' E 003°44'0 0.0
2017-Oct-31 22:30N 51°05' E 003°44'0 0.0
2017-Oct-31 22:00N 51°05' E 003°44'0 0.0
2017-Oct-31 21:30N 51°05' E 003°44'0 0.0
2017-Oct-31 21:00N 51°05' E 003°44'0 0.0
2017-Oct-31 20:30N 51°05' E 003°44'0 0.0
2017-Oct-31 20:00N 51°05' E 003°44'0 0.0
2017-Oct-31 19:30N 51°05' E 003°44'0 0.0
2017-Oct-31 19:00N 51°05' E 003°44'0 0.0
2017-Oct-31 18:30N 51°05' E 003°44'0 0.0
2017-Oct-31 18:00N 51°05' E 003°44'0 0.0
2017-Oct-31 17:30N 51°05' E 003°44'0 0.0
2017-Oct-31 17:00N 51°05' E 003°44'0 0.0
2017-Oct-31 16:30N 51°05' E 003°44'0 0.0
2017-Oct-31 16:00N 51°05' E 003°44'0 0.0
2017-Oct-31 15:30N 51°05' E 003°44'0 0.0
2017-Oct-31 15:00N 51°05' E 003°44'0 0.0
2017-Oct-31 14:31N 51°05' E 003°44'0 0.0
2017-Oct-31 14:00N 51°05' E 003°44'0 0.0
2017-Oct-31 13:30N 51°05' E 003°44'0 0.0
2017-Oct-31 13:00N 51°05' E 003°44'0 0.0
2017-Oct-31 12:30N 51°05' E 003°44'0 0.0
2017-Oct-31 12:00N 51°05' E 003°44'0 0.0
2017-Oct-31 11:30N 51°05' E 003°44'0 0.0
2017-Oct-31 11:01N 51°05' E 003°44'0 0.0
2017-Oct-31 10:30N 51°05' E 003°44'0 0.0
2017-Oct-31 10:00N 51°05' E 003°44'0 0.0
2017-Oct-31 09:30N 51°05' E 003°44'0 0.0
2017-Oct-31 09:00N 51°05' E 003°44'0 0.0
2017-Oct-31 08:30N 51°05' E 003°44'0 0.0
2017-Oct-31 08:00N 51°05' E 003°44'0 0.0
2017-Oct-31 07:31N 51°05' E 003°44'0 0.0
2017-Oct-31 07:00N 51°05' E 003°44'0 0.0
2017-Oct-31 06:30N 51°05' E 003°44'0 0.0
2017-Oct-31 06:00N 51°05' E 003°44'0 0.0
2017-Oct-31 05:30N 51°05' E 003°44'0 0.0
2017-Oct-31 05:00N 51°05' E 003°44'0 0.0
2017-Oct-31 04:31N 51°05' E 003°44'0 0.0
2017-Oct-31 04:00N 51°05' E 003°44'0 0.0
2017-Oct-31 03:31N 51°05' E 003°44'0 0.0
2017-Oct-31 03:00N 51°05' E 003°44'0 0.0
2017-Oct-31 02:30N 51°05' E 003°44'0 0.0
2017-Oct-31 02:00N 51°05' E 003°44'0 0.0
2017-Oct-31 01:30N 51°05' E 003°44'0 0.0
2017-Oct-31 01:01N 51°05' E 003°44'0 0.0
2017-Oct-31 00:30N 51°05' E 003°44'0 0.0
2017-Oct-31 00:00N 51°05' E 003°44'0 0.0
2017-Oct-30 23:30N 51°05' E 003°44'0 0.0
2017-Oct-30 23:00N 51°05' E 003°44'0 0.0
2017-Oct-30 22:30N 51°05' E 003°44'0 0.0
2017-Oct-30 22:00N 51°05' E 003°44'0 0.0
2017-Oct-30 21:31N 51°05' E 003°44'2 4.5
2017-Oct-30 21:00N 51°07' E 003°45'4 8.8
2017-Oct-30 20:30N 51°11' E 003°48'3 6.8
2017-Oct-30 20:00N 51°15' E 003°49'4 7.6
2017-Oct-30 19:30N 51°18' E 003°50'2 3.1
2017-Oct-30 19:00N 51°20' E 003°49'0 0.8
2017-Oct-30 18:30N 51°20' E 003°49'0 0.2
2017-Oct-30 18:00N 51°20' E 003°49'2 3.5
2017-Oct-30 17:31N 51°21' E 003°47'5 9.0
2017-Oct-30 17:00N 51°24' E 003°41'5 9.8
2017-Oct-30 16:30N 51°25' E 003°33'3 5.5
2017-Oct-30 16:00N 51°25' E 003°29'3 6.0
2017-Oct-30 15:31N 51°24' E 003°24'3 6.6
2017-Oct-30 15:00N 51°24' E 003°19'5 9.3
2017-Oct-30 14:30N 51°23' E 003°12'10 9.6
2017-Oct-30 13:30N 51°22' E 002°57'510.0
2017-Oct-30 13:00N 51°21' E 002°48'610.2
2017-Oct-30 12:26N 51°21' E 002°39'4 9.7
2017-Oct-30 11:59N 51°20' E 002°33'1 1.0
2017-Oct-30 11:29N 51°19' E 002°32'0 0.0
2017-Oct-30 10:59N 51°19' E 002°32'0 0.0
2017-Oct-30 10:29N 51°19' E 002°32'0 0.0
2017-Oct-30 09:59N 51°19' E 002°32'0 0.0
2017-Oct-30 09:29N 51°19' E 002°32'0 0.0
2017-Oct-30 08:59N 51°19' E 002°32'0 0.0
2017-Oct-30 08:26N 51°19' E 002°32'0 0.0
2017-Oct-30 07:53N 51°19' E 002°32'0 0.0
2017-Oct-30 07:29N 51°19' E 002°32'0 0.1
2017-Oct-30 06:59N 51°19' E 002°32'0 0.0
2017-Oct-30 06:29N 51°19' E 002°32'0 0.0
2017-Oct-30 05:56N 51°19' E 002°32'0 0.1
2017-Oct-30 05:29N 51°19' E 002°32'0 0.0
2017-Oct-30 04:59N 51°19' E 002°32'0 0.0
2017-Oct-30 04:11N 51°19' E 002°32'0 0.0
2017-Oct-30 03:53N 51°19' E 002°32'0 0.0
2017-Oct-30 03:08N 51°19' E 002°32'0 0.0
2017-Oct-30 02:53N 51°19' E 002°32'0 0.0
2017-Oct-30 02:23N 51°19' E 002°32'0 0.0
2017-Oct-30 01:59N 51°19' E 002°32'0 0.0
2017-Oct-30 01:23N 51°19' E 002°32'0 0.0
2017-Oct-30 00:59N 51°19' E 002°32'  

Dump ship's entire track history